createdAt,value
2023-02-12T00:01:25.724Z,64.25
2023-02-12T00:03:53.096Z,63.98
2023-02-12T00:06:20.494Z,63.77
2023-02-12T00:08:51.645Z,63.78
2023-02-12T00:11:22.728Z,64.68
2023-02-12T00:13:50.773Z,64.43
2023-02-12T00:16:22.368Z,64.18
2023-02-12T00:18:54.072Z,63.96
2023-02-12T00:21:22.749Z,63.92
2023-02-12T00:23:50.144Z,63.99
2023-02-12T00:26:20.361Z,64.34
2023-02-12T00:28:50.685Z,64.08
2023-02-12T00:31:22.531Z,63.89
2023-02-12T00:33:50.553Z,63.77
2023-02-12T00:36:22.893Z,64.81
2023-02-12T00:38:53.480Z,64.90
2023-02-12T00:41:22.019Z,64.91
2023-02-12T00:43:50.150Z,64.89
2023-02-12T00:46:17.462Z,64.10
2023-02-12T00:48:45.115Z,63.71
2023-02-12T00:51:12.311Z,63.70
2023-02-12T00:53:39.765Z,64.30
2023-02-12T00:56:07.943Z,64.70
2023-02-12T00:58:35.498Z,64.50
2023-02-12T01:01:02.600Z,64.66
2023-02-12T01:03:29.765Z,64.41
2023-02-12T01:05:59.127Z,65.08
2023-02-12T01:08:26.463Z,64.96
2023-02-12T01:11:05.731Z,65.35
2023-02-12T01:13:34.526Z,65.39
2023-02-12T01:16:02.766Z,65.07
2023-02-12T01:18:29.984Z,64.70
2023-02-12T01:20:58.954Z,65.34
2023-02-12T01:23:26.178Z,65.86
2023-02-12T01:25:53.812Z,65.56
2023-02-12T01:28:21.446Z,66.24
2023-02-12T01:30:48.722Z,66.46
2023-02-12T01:33:16.087Z,66.01
2023-02-12T01:35:43.249Z,65.95
2023-02-12T01:38:10.390Z,66.10
2023-02-12T01:40:38.621Z,66.36
2023-02-12T01:43:12.314Z,66.69
2023-02-12T01:45:50.175Z,66.51
2023-02-12T01:48:19.496Z,65.71
2023-02-12T01:50:51.473Z,65.50
2023-02-12T01:53:22.077Z,65.75
2023-02-12T01:55:54.520Z,66.34
2023-02-12T01:58:23.480Z,65.71
2023-02-12T02:00:51.099Z,65.76
2023-02-12T02:03:18.588Z,65.50
2023-02-12T02:05:54.749Z,65.66
2023-02-12T02:08:23.368Z,65.77
2023-02-12T02:10:50.919Z,65.80
2023-02-12T02:13:37.476Z,65.72
2023-02-12T02:16:26.643Z,65.48
2023-02-12T02:19:00.886Z,65.48
2023-02-12T02:22:02.709Z,65.96
2023-02-12T02:24:32.777Z,65.64
2023-02-12T02:27:28.307Z,66.46
2023-02-12T02:30:31.962Z,66.40
2023-02-12T02:33:14.020Z,66.36
2023-02-12T02:36:07.971Z,66.33
2023-02-12T02:38:57.349Z,66.93
2023-02-12T02:41:56.678Z,65.85
2023-02-12T02:44:46.313Z,65.60
2023-02-12T02:47:15.129Z,65.79
2023-02-12T02:50:02.205Z,65.94
2023-02-12T02:52:53.792Z,65.96
2023-02-12T02:55:24.431Z,65.72
2023-02-12T02:58:10.440Z,65.93
2023-02-12T03:00:49.392Z,66.07
2023-02-12T03:03:28.837Z,66.15
2023-02-12T03:06:04.024Z,65.93
2023-02-12T03:08:38.237Z,65.83
2023-02-12T03:11:17.015Z,65.97
2023-02-12T03:13:51.181Z,65.86
2023-02-12T03:16:24.315Z,65.35
2023-02-12T03:19:18.890Z,66.06
2023-02-12T03:22:06.930Z,66.43
2023-02-12T03:24:39.459Z,67.21
2023-02-12T03:27:15.073Z,66.94
2023-02-12T03:29:42.266Z,66.48
2023-02-12T03:32:21.177Z,66.60
2023-02-12T03:35:34.094Z,66.25
2023-02-12T03:38:36.150Z,65.48
2023-02-12T03:41:21.876Z,65.52
2023-02-12T03:44:26.934Z,65.90
2023-02-12T03:47:05.119Z,65.57
2023-02-12T03:50:10.291Z,65.77
2023-02-12T03:52:37.569Z,65.68
2023-02-12T03:55:06.073Z,65.59
2023-02-12T03:57:41.253Z,65.48
2023-02-12T04:00:21.166Z,65.51
2023-02-12T04:02:48.693Z,65.77
2023-02-12T04:05:26.186Z,65.10
2023-02-12T04:07:55.963Z,65.28
2023-02-12T04:10:39.146Z,64.85
2023-02-12T04:13:25.966Z,65.42
2023-02-12T04:16:18.327Z,65.91
2023-02-12T04:18:51.677Z,66.00
2023-02-12T04:22:01.335Z,64.76
2023-02-12T04:24:31.156Z,65.69
2023-02-12T04:27:32.462Z,65.24
2023-02-12T04:30:22.637Z,65.29
2023-02-12T04:32:57.365Z,64.39
2023-02-12T04:35:34.287Z,64.38
2023-02-12T04:38:19.825Z,64.22
2023-02-12T04:40:48.399Z,64.01
2023-02-12T04:43:15.684Z,64.32
2023-02-12T04:45:42.996Z,64.45
2023-02-12T04:48:10.642Z,64.61
2023-02-12T04:50:43.867Z,64.57
2023-02-12T04:53:11.422Z,64.46
2023-02-12T04:55:38.857Z,64.59
2023-02-12T04:58:06.889Z,64.81
2023-02-12T05:00:34.616Z,65.33
2023-02-12T05:03:02.066Z,64.98
2023-02-12T05:05:29.182Z,65.08
2023-02-12T05:07:56.259Z,65.11
2023-02-12T05:10:23.628Z,65.83
2023-02-12T05:12:53.891Z,65.82
2023-02-12T05:15:21.596Z,66.03
2023-02-12T05:17:48.855Z,65.97
2023-02-12T05:20:16.013Z,66.05
2023-02-12T05:22:43.200Z,65.91
2023-02-12T05:25:10.355Z,65.73
2023-02-12T05:27:37.459Z,65.46
2023-02-12T05:30:06.193Z,65.01
2023-02-12T05:32:33.356Z,64.70
2023-02-12T05:35:00.493Z,64.19
2023-02-12T05:37:27.794Z,63.84
2023-02-12T05:39:55.002Z,63.33
2023-02-12T05:42:22.177Z,63.49
2023-02-12T05:44:49.289Z,64.50
2023-02-12T05:47:16.420Z,64.45
2023-02-12T05:49:43.614Z,64.10
2023-02-12T05:52:10.709Z,63.67
2023-02-12T05:54:37.894Z,63.00
2023-02-12T05:57:06.911Z,63.98
2023-02-12T05:59:34.031Z,63.45
2023-02-12T06:02:01.131Z,63.56
2023-02-12T06:04:29.285Z,63.86
2023-02-12T06:06:57.106Z,64.24
2023-02-12T06:09:24.633Z,64.05
2023-02-12T06:11:52.424Z,63.90
2023-02-12T06:14:21.579Z,63.27
2023-02-12T06:16:51.198Z,63.13
2023-02-12T06:19:19.844Z,63.07
2023-02-12T06:21:47.716Z,62.99
2023-02-12T06:24:17.020Z,63.45
2023-02-12T06:26:44.848Z,63.17
2023-02-12T06:29:15.820Z,63.19
2023-02-12T06:31:43.372Z,63.83
2023-02-12T06:34:12.996Z,63.56
2023-02-12T06:36:44.535Z,63.65
2023-02-12T06:39:14.567Z,63.53
2023-02-12T06:41:42.165Z,64.02
2023-02-12T06:44:11.840Z,63.27
2023-02-12T06:46:38.966Z,63.12
2023-02-12T06:49:06.100Z,63.30
2023-02-12T06:51:33.353Z,62.52
2023-02-12T06:54:00.430Z,62.81
2023-02-12T06:56:27.921Z,62.27
2023-02-12T06:58:58.283Z,62.56
2023-02-12T07:01:28.727Z,62.54
2023-02-12T07:04:02.497Z,62.89
2023-02-12T07:06:32.255Z,62.51
2023-02-12T07:08:59.618Z,62.25
2023-02-12T07:11:30.662Z,61.84
2023-02-12T07:13:58.155Z,61.19
2023-02-12T07:16:26.523Z,61.44
2023-02-12T07:18:54.356Z,61.52
2023-02-12T07:21:22.030Z,61.66
2023-02-12T07:23:51.740Z,61.79
2023-02-12T07:26:21.023Z,62.05
2023-02-12T07:28:48.809Z,62.38
2023-02-12T07:31:19.890Z,62.44
2023-02-12T07:33:47.981Z,62.11
2023-02-12T07:36:18.506Z,61.64
2023-02-12T07:38:45.991Z,61.33
2023-02-12T07:41:14.385Z,61.83
2023-02-12T07:43:44.347Z,61.75
2023-02-12T07:46:37.943Z,61.81
2023-02-12T07:49:07.547Z,61.37
2023-02-12T07:51:37.086Z,60.86
2023-02-12T07:54:05.318Z,60.25
2023-02-12T07:56:37.656Z,59.98
2023-02-12T07:59:10.231Z,59.75
2023-02-12T08:01:41.719Z,59.33
2023-02-12T08:04:13.395Z,59.00
2023-02-12T08:06:44.243Z,58.79
2023-02-12T08:09:15.276Z,59.98
2023-02-12T08:11:44.550Z,59.59
2023-02-12T08:14:18.436Z,60.23
2023-02-12T08:16:48.286Z,59.95
2023-02-12T08:19:20.869Z,59.82
2023-02-12T08:21:54.772Z,59.80
2023-02-12T08:24:24.576Z,59.36
2023-02-12T08:26:52.161Z,59.32
2023-02-12T08:29:24.197Z,59.02
2023-02-12T08:32:00.121Z,59.04
2023-02-12T08:34:30.810Z,59.43
2023-02-12T08:36:59.186Z,59.39
2023-02-12T08:39:29.177Z,59.20
2023-02-12T08:41:58.915Z,59.02
2023-02-12T08:44:26.400Z,58.48
2023-02-12T08:46:55.674Z,58.20
2023-02-12T08:49:27.532Z,57.79
2023-02-12T08:51:56.905Z,57.82
2023-02-12T08:54:28.797Z,57.68
2023-02-12T08:56:58.264Z,57.15
2023-02-12T08:59:25.616Z,56.72
2023-02-12T09:01:53.563Z,56.87
2023-02-12T09:04:25.319Z,57.03
2023-02-12T09:06:53.249Z,57.30
2023-02-12T09:09:21.281Z,57.50
2023-02-12T09:11:49.519Z,56.81
2023-02-12T09:14:18.746Z,56.68
2023-02-12T09:16:46.173Z,56.36
2023-02-12T09:19:14.769Z,55.94
2023-02-12T09:21:42.424Z,56.70
2023-02-12T09:24:10.729Z,57.09
2023-02-12T09:26:38.211Z,57.63
2023-02-12T09:29:06.060Z,57.03
2023-02-12T09:31:34.274Z,57.42
2023-02-12T09:34:04.600Z,58.48
2023-02-12T09:36:33.164Z,58.21
2023-02-12T09:39:00.987Z,57.34
2023-02-12T09:41:57.706Z,57.03
2023-02-12T09:44:40.005Z,56.81
2023-02-12T09:47:44.231Z,57.77
2023-02-12T09:50:47.645Z,57.65
2023-02-12T09:53:20.110Z,56.79
2023-02-12T09:55:47.852Z,55.97
2023-02-12T09:58:38.823Z,55.38
2023-02-12T10:01:17.039Z,55.53
2023-02-12T10:03:48.484Z,54.97
2023-02-12T10:06:20.121Z,54.19
2023-02-12T10:09:24.089Z,54.41
2023-02-12T10:12:35.105Z,53.82
2023-02-12T10:15:15.543Z,54.97
2023-02-12T10:17:43.996Z,55.27
2023-02-12T10:20:46.870Z,54.76
2023-02-12T10:23:28.677Z,54.06
2023-02-12T10:26:00.354Z,53.34
2023-02-12T10:28:34.982Z,52.67
2023-02-12T10:31:13.927Z,52.02
2023-02-12T10:33:50.335Z,52.11
2023-02-12T10:36:40.716Z,51.48
2023-02-12T10:39:10.947Z,51.59
2023-02-12T10:42:01.691Z,51.21
2023-02-12T10:44:29.069Z,50.93
2023-02-12T10:46:56.654Z,50.59
2023-02-12T10:49:24.225Z,50.37
2023-02-12T10:52:22.269Z,50.54
2023-02-12T10:54:49.982Z,50.59
2023-02-12T10:57:27.283Z,50.87
2023-02-12T10:59:59.636Z,50.90
2023-02-12T11:02:33.414Z,50.55
2023-02-12T11:05:25.468Z,49.50
2023-02-12T11:07:53.003Z,49.84
2023-02-12T11:10:46.520Z,50.69
2023-02-12T11:13:28.322Z,50.37
2023-02-12T11:15:56.072Z,49.75
2023-02-12T11:18:34.631Z,48.65
2023-02-12T11:21:13.117Z,49.02
2023-02-12T11:23:43.623Z,48.76
2023-02-12T11:26:19.904Z,48.41
2023-02-12T11:29:01.211Z,48.73
2023-02-12T11:31:37.945Z,48.30
2023-02-12T11:34:15.421Z,48.41
2023-02-12T11:36:52.576Z,48.53
2023-02-12T11:39:24.869Z,48.46
2023-02-12T11:41:56.624Z,48.46
2023-02-12T11:44:34.899Z,50.03
2023-02-12T11:47:12.134Z,49.23
2023-02-12T11:49:56.133Z,48.81
2023-02-12T11:52:30.077Z,49.16
2023-02-12T11:55:08.660Z,49.40
2023-02-12T11:57:49.629Z,49.80
2023-02-12T12:00:26.153Z,50.64
2023-02-12T12:03:14.903Z,50.40
2023-02-12T12:06:01.492Z,50.37
2023-02-12T12:08:40.971Z,50.77
2023-02-12T12:11:26.999Z,51.02
2023-02-12T12:14:32.445Z,51.16
2023-02-12T12:17:33.506Z,51.17
2023-02-12T12:20:12.284Z,51.15
2023-02-12T12:23:00.492Z,50.76
2023-02-12T12:25:36.931Z,50.80
2023-02-12T12:28:30.718Z,50.63
2023-02-12T12:31:14.035Z,50.67
2023-02-12T12:34:20.821Z,49.79
2023-02-12T12:37:21.614Z,49.45
2023-02-12T12:39:57.892Z,49.83
2023-02-12T12:43:21.997Z,51.27
2023-02-12T12:46:24.403Z,51.88
2023-02-12T12:49:13.179Z,51.37
2023-02-12T12:52:20.272Z,51.98
2023-02-12T12:55:06.687Z,52.73
2023-02-12T12:57:55.012Z,54.06
2023-02-12T13:00:46.320Z,53.51
2023-02-12T13:03:59.054Z,53.51
2023-02-12T13:06:59.002Z,53.94
2023-02-12T13:09:45.741Z,52.75
2023-02-12T13:12:40.594Z,53.35
2023-02-12T13:15:37.657Z,53.53
2023-02-12T13:18:20.509Z,54.79
2023-02-12T13:21:04.206Z,55.00
2023-02-12T13:23:49.068Z,54.91
2023-02-12T13:26:30.731Z,55.40
2023-02-12T13:29:17.838Z,55.51
2023-02-12T13:32:11.943Z,55.77
2023-02-12T13:34:41.369Z,55.12
2023-02-12T13:37:19.286Z,55.62
2023-02-12T13:39:49.350Z,56.43
2023-02-12T13:42:55.276Z,56.85
2023-02-12T13:45:44.300Z,56.71
2023-02-12T13:48:44.633Z,56.44
2023-02-12T13:51:22.027Z,56.88
2023-02-12T13:54:05.399Z,56.66
2023-02-12T13:56:49.655Z,56.58
2023-02-12T13:59:32.403Z,57.05
2023-02-12T14:02:24.208Z,56.67
2023-02-12T14:05:21.331Z,55.71
2023-02-12T14:07:53.930Z,56.13
2023-02-12T14:10:29.110Z,56.10
2023-02-12T14:13:22.786Z,56.00
2023-02-12T14:15:54.074Z,56.29
2023-02-12T14:18:33.275Z,56.23
2023-02-12T14:21:12.371Z,55.95
2023-02-12T14:23:42.301Z,55.69
2023-02-12T14:26:20.889Z,55.74
2023-02-12T14:28:52.377Z,55.84
2023-02-12T14:31:23.297Z,55.86
2023-02-12T14:34:02.945Z,55.99
2023-02-12T14:36:33.363Z,55.20
2023-02-12T14:39:24.832Z,55.52
2023-02-12T14:42:00.401Z,55.26
2023-02-12T14:44:29.033Z,55.41
2023-02-12T14:47:31.385Z,54.82
2023-02-12T14:50:19.023Z,54.95
2023-02-12T14:52:54.687Z,55.29
2023-02-12T14:55:34.428Z,55.52
2023-02-12T14:58:10.944Z,55.51
2023-02-12T15:00:46.023Z,55.22
2023-02-12T15:03:13.181Z,55.14
2023-02-12T15:05:43.922Z,55.02
2023-02-12T15:08:36.383Z,55.30
2023-02-12T15:11:34.245Z,55.86
2023-02-12T15:14:08.689Z,55.49
2023-02-12T15:17:19.672Z,55.92
2023-02-12T15:20:08.196Z,56.79
2023-02-12T15:22:43.256Z,58.18
2023-02-12T15:25:23.831Z,58.55
2023-02-12T15:28:26.645Z,58.66
2023-02-12T15:30:56.635Z,58.89
2023-02-12T15:33:30.274Z,59.04
2023-02-12T15:35:59.013Z,59.03
2023-02-12T15:38:41.509Z,58.87
2023-02-12T15:41:25.707Z,59.27
2023-02-12T15:43:53.161Z,58.57
2023-02-12T15:46:20.487Z,58.53
2023-02-12T15:48:47.738Z,58.62
2023-02-12T15:51:38.993Z,59.16
2023-02-12T15:54:07.701Z,59.29
2023-02-12T15:56:36.442Z,59.50
2023-02-12T15:59:04.376Z,59.38
2023-02-12T16:01:35.217Z,59.00
2023-02-12T16:04:08.117Z,59.60
2023-02-12T16:06:39.314Z,59.13
2023-02-12T16:09:28.847Z,58.82
2023-02-12T16:11:59.304Z,59.01
2023-02-12T16:14:44.689Z,58.77
2023-02-12T16:17:33.523Z,58.16
2023-02-12T16:20:22.023Z,59.00
2023-02-12T16:22:52.154Z,58.50
2023-02-12T16:25:32.222Z,58.75
2023-02-12T16:28:04.355Z,58.46
2023-02-12T16:30:42.938Z,59.35
2023-02-12T16:33:35.220Z,59.38
2023-02-12T16:36:07.600Z,59.38
2023-02-12T16:38:55.356Z,59.18
2023-02-12T16:41:34.338Z,58.68
2023-02-12T16:44:01.626Z,58.56
2023-02-12T16:46:35.250Z,58.46
2023-02-12T16:49:03.388Z,58.17
2023-02-12T16:51:37.962Z,58.37
2023-02-12T16:54:26.139Z,58.63
2023-02-12T16:56:53.690Z,58.72
2023-02-12T16:59:21.023Z,58.70
2023-02-12T17:02:06.557Z,58.61
2023-02-12T17:04:33.896Z,59.47
2023-02-12T17:07:01.121Z,59.68
2023-02-12T17:09:30.253Z,59.54
2023-02-12T17:11:58.191Z,59.44
2023-02-12T17:14:25.465Z,59.67
2023-02-12T17:16:52.704Z,60.00
2023-02-12T17:19:20.232Z,59.65
2023-02-12T17:21:49.495Z,59.42
2023-02-12T17:24:27.140Z,59.36
2023-02-12T17:26:55.548Z,59.40
2023-02-12T17:29:25.186Z,58.96
2023-02-12T17:31:54.062Z,59.27
2023-02-12T17:34:22.683Z,59.78
2023-02-12T17:36:50.271Z,59.36
2023-02-12T17:39:19.436Z,60.18
2023-02-12T17:41:48.142Z,60.00
2023-02-12T17:44:16.323Z,59.89
2023-02-12T17:46:43.884Z,59.49
2023-02-12T17:49:11.220Z,59.91
2023-02-12T17:51:38.792Z,59.54
2023-02-12T17:54:06.198Z,60.13
2023-02-12T17:56:33.599Z,59.83
2023-02-12T17:59:01.916Z,59.53
2023-02-12T18:01:29.430Z,59.71
2023-02-12T18:03:58.964Z,59.35
2023-02-12T18:06:29.430Z,59.72
2023-02-12T18:08:58.059Z,59.35
2023-02-12T18:11:25.609Z,58.91
2023-02-12T18:13:55.914Z,58.79
2023-02-12T18:16:26.262Z,58.67
2023-02-12T18:18:54.094Z,58.46
2023-02-12T18:21:24.273Z,58.23
2023-02-12T18:23:54.056Z,58.62
2023-02-12T18:26:22.791Z,58.71
2023-02-12T18:28:59.803Z,59.19
2023-02-12T18:31:30.682Z,59.47
2023-02-12T18:33:58.102Z,59.92
2023-02-12T18:36:25.373Z,59.79
2023-02-12T18:38:52.795Z,59.94
2023-02-12T18:41:26.865Z,60.16
2023-02-12T18:43:55.210Z,60.65
2023-02-12T18:46:28.900Z,60.76
2023-02-12T18:48:56.769Z,61.05
2023-02-12T18:51:29.529Z,60.71
2023-02-12T18:54:01.518Z,60.32
2023-02-12T18:56:31.278Z,60.21
2023-02-12T18:59:00.738Z,60.18
2023-02-12T19:01:29.087Z,60.77
2023-02-12T19:04:00.477Z,60.68
2023-02-12T19:06:32.726Z,60.43
2023-02-12T19:09:04.121Z,60.25
2023-02-12T19:11:31.928Z,60.07
2023-02-12T19:13:59.456Z,60.03
2023-02-12T19:16:27.801Z,60.11
2023-02-12T19:18:58.846Z,59.89
2023-02-12T19:21:26.470Z,59.87
2023-02-12T19:24:00.741Z,59.53
2023-02-12T19:26:30.276Z,59.73
2023-02-12T19:28:58.597Z,60.06
2023-02-12T19:31:34.273Z,59.78
2023-02-12T19:34:06.160Z,59.60
2023-02-12T19:36:36.542Z,59.31
2023-02-12T19:39:06.186Z,59.54
2023-02-12T19:41:40.996Z,60.24
2023-02-12T19:44:21.431Z,60.53
2023-02-12T19:46:50.064Z,60.63
2023-02-12T19:49:26.330Z,60.58
2023-02-12T19:51:54.593Z,60.64
2023-02-12T19:54:23.788Z,60.57
2023-02-12T19:56:52.966Z,60.43
2023-02-12T19:59:22.949Z,61.17
2023-02-12T20:01:50.798Z,60.50
2023-02-12T20:04:21.427Z,60.28
2023-02-12T20:06:51.076Z,60.43
2023-02-12T20:09:20.447Z,60.12
2023-02-12T20:11:47.610Z,59.73
2023-02-12T20:14:15.538Z,59.79
2023-02-12T20:16:46.766Z,60.19
2023-02-12T20:19:26.755Z,61.08
2023-02-12T20:21:56.078Z,61.10
2023-02-12T20:24:28.617Z,61.63
2023-02-12T20:26:57.750Z,61.66
2023-02-12T20:29:25.181Z,61.70
2023-02-12T20:31:53.177Z,61.43
2023-02-12T20:34:22.227Z,61.15
2023-02-12T20:36:49.752Z,60.98
2023-02-12T20:39:20.053Z,61.01
2023-02-12T20:41:59.696Z,60.78
2023-02-12T20:44:27.355Z,60.27
2023-02-12T20:46:57.200Z,60.20
2023-02-12T20:49:25.025Z,60.44
2023-02-12T20:51:52.727Z,60.21
2023-02-12T20:54:19.998Z,60.16
2023-02-12T20:56:50.447Z,60.49
2023-02-12T20:59:18.771Z,60.27
2023-02-12T21:01:47.017Z,60.22
2023-02-12T21:04:18.131Z,59.49
2023-02-12T21:06:47.389Z,60.00
2023-02-12T21:09:15.339Z,60.12
2023-02-12T21:11:45.615Z,60.15
2023-02-12T21:14:23.563Z,60.69
2023-02-12T21:16:55.833Z,60.65
2023-02-12T21:19:24.294Z,60.93
2023-02-12T21:21:52.287Z,60.75
2023-02-12T21:24:23.533Z,59.87
2023-02-12T21:26:52.664Z,59.34
2023-02-12T21:29:21.624Z,59.62
2023-02-12T21:31:50.478Z,60.40
2023-02-12T21:34:23.254Z,60.54
2023-02-12T21:36:53.656Z,60.46
2023-02-12T21:39:26.544Z,60.49
2023-02-12T21:42:04.034Z,60.10
2023-02-12T21:44:35.511Z,60.33
2023-02-12T21:47:02.847Z,60.16
2023-02-12T21:49:30.100Z,60.45
2023-02-12T21:52:05.903Z,60.45
2023-02-12T21:54:33.750Z,60.29
2023-02-12T21:57:01.269Z,60.32
2023-02-12T21:59:30.805Z,60.35
2023-02-12T22:02:00.809Z,60.63
2023-02-12T22:04:28.453Z,60.70
2023-02-12T22:06:56.730Z,60.43
2023-02-12T22:09:24.390Z,60.38
2023-02-12T22:11:52.548Z,59.82
2023-02-12T22:14:21.743Z,59.92
2023-02-12T22:16:49.596Z,60.27
2023-02-12T22:19:16.783Z,60.19
2023-02-12T22:21:44.774Z,60.32
2023-02-12T22:24:15.443Z,59.46
2023-02-12T22:26:43.963Z,59.12
2023-02-12T22:29:15.679Z,58.95
2023-02-12T22:31:45.258Z,59.14
2023-02-12T22:34:16.989Z,59.69
2023-02-12T22:36:46.791Z,59.07
2023-02-12T22:39:15.238Z,58.80
2023-02-12T22:41:42.901Z,58.56
2023-02-12T22:44:12.615Z,58.06
2023-02-12T22:46:41.002Z,58.19
2023-02-12T22:49:08.254Z,58.33
2023-02-12T22:51:36.953Z,59.08
2023-02-12T22:54:06.202Z,59.27
2023-02-12T22:56:33.997Z,58.95
2023-02-12T22:59:02.184Z,58.63
2023-02-12T23:01:31.093Z,58.80
2023-02-12T23:03:58.438Z,58.97
2023-02-12T23:06:29.733Z,59.04
2023-02-12T23:09:02.795Z,59.58
2023-02-12T23:11:32.521Z,59.85
2023-02-12T23:14:00.349Z,60.15
2023-02-12T23:16:28.015Z,59.96
2023-02-12T23:19:00.841Z,59.86
2023-02-12T23:21:30.454Z,59.85
2023-02-12T23:24:01.693Z,59.85
2023-02-12T23:26:30.063Z,60.12
2023-02-12T23:28:58.278Z,60.07
2023-02-12T23:31:26.152Z,60.27
2023-02-12T23:33:53.414Z,60.38
2023-02-12T23:36:20.742Z,60.19
2023-02-12T23:38:47.876Z,60.15
2023-02-12T23:41:15.004Z,60.41
2023-02-12T23:43:42.190Z,60.19
2023-02-12T23:46:09.711Z,60.34
2023-02-12T23:48:37.144Z,60.42
2023-02-12T23:51:04.861Z,60.17
2023-02-12T23:53:31.985Z,60.26
2023-02-12T23:55:59.174Z,59.35
2023-02-12T23:58:26.332Z,59.28
